createdAt,value
2022-11-20T00:01:40.500Z,101517.47
2022-11-20T00:04:07.495Z,101524.41
2022-11-20T00:06:34.211Z,101508.72
2022-11-20T00:09:02.818Z,101515.59
2022-11-20T00:11:32.196Z,101522.59
2022-11-20T00:14:02.003Z,101523.56
2022-11-20T00:16:31.157Z,101523.53
2022-11-20T00:18:57.973Z,101531.31
2022-11-20T00:21:26.575Z,101526.91
2022-11-20T00:23:55.425Z,101526.97
2022-11-20T00:26:23.933Z,101527.88
2022-11-20T00:28:52.568Z,101519.91
2022-11-20T00:31:20.931Z,101520.97
2022-11-20T00:33:47.956Z,101527.22
2022-11-20T00:36:16.536Z,101521.41
2022-11-20T00:38:43.847Z,101507.66
2022-11-20T00:41:12.868Z,101529.56
2022-11-20T00:43:39.750Z,101525.31
2022-11-20T00:46:08.320Z,101527.09
2022-11-20T00:48:36.709Z,101517.59
2022-11-20T00:51:03.530Z,101528.03
2022-11-20T00:53:30.268Z,101516.81
2022-11-20T00:55:58.352Z,101522.91
2022-11-20T00:58:26.640Z,101524.69
2022-11-20T01:00:53.555Z,101512.59
2022-11-20T01:03:25.560Z,101517.00
2022-11-20T01:05:55.134Z,101518.84
2022-11-20T01:08:21.934Z,101515.41
2022-11-20T01:10:48.738Z,101511.91
2022-11-20T01:13:41.590Z,101510.09
2022-11-20T01:16:10.481Z,101510.13
2022-11-20T01:18:38.532Z,101509.28
2022-11-20T01:21:10.191Z,101503.28
2022-11-20T01:23:39.579Z,101505.09
2022-11-20T01:26:08.831Z,101503.41
2022-11-20T01:28:35.931Z,101497.38
2022-11-20T01:31:12.114Z,101500.84
2022-11-20T01:33:40.033Z,101493.03
2022-11-20T01:36:09.483Z,101490.28
2022-11-20T01:38:45.245Z,101489.53
2022-11-20T01:41:32.370Z,101491.25
2022-11-20T01:43:59.381Z,101496.47
2022-11-20T01:46:26.317Z,101495.63
2022-11-20T01:48:58.371Z,101483.47
2022-11-20T01:51:30.647Z,101474.81
2022-11-20T01:54:01.625Z,101482.66
2022-11-20T01:56:30.533Z,101477.47
2022-11-20T01:59:02.073Z,101467.03
2022-11-20T02:01:29.284Z,101470.50
2022-11-20T02:03:57.258Z,101477.47
2022-11-20T02:06:29.022Z,101468.78
2022-11-20T02:08:55.981Z,101456.59
2022-11-20T02:11:22.905Z,101456.59
2022-11-20T02:13:50.603Z,101448.75
2022-11-20T02:16:22.353Z,101447.03
2022-11-20T02:18:50.138Z,101447.00
2022-11-20T02:21:29.342Z,101447.81
2022-11-20T02:24:06.922Z,101447.88
2022-11-20T02:26:38.606Z,101442.72
2022-11-20T02:29:05.399Z,101441.00
2022-11-20T02:31:38.233Z,101437.56
2022-11-20T02:34:05.189Z,101453.16
2022-11-20T02:36:33.771Z,101447.06
2022-11-20T02:39:00.984Z,101447.09
2022-11-20T02:41:34.410Z,101444.47
2022-11-20T02:44:01.829Z,101443.63
2022-11-20T02:46:29.237Z,101437.53
2022-11-20T02:48:56.323Z,101428.88
2022-11-20T02:51:23.441Z,101410.66
2022-11-20T02:53:50.301Z,101421.00
2022-11-20T02:56:17.364Z,101426.16
2022-11-20T02:58:45.479Z,101429.69
2022-11-20T03:01:12.545Z,101425.31
2022-11-20T03:03:39.606Z,101421.81
2022-11-20T03:06:07.088Z,101420.06
2022-11-20T03:08:33.879Z,101421.84
2022-11-20T03:11:04.128Z,101416.69
2022-11-20T03:13:31.063Z,101413.25
2022-11-20T03:15:59.258Z,101415.00
2022-11-20T03:18:28.923Z,101408.03
2022-11-20T03:20:58.897Z,101402.03
2022-11-20T03:23:25.761Z,101414.91
2022-11-20T03:25:53.098Z,101414.16
2022-11-20T03:28:19.889Z,101410.78
2022-11-20T03:30:46.843Z,101417.78
2022-11-20T03:33:14.988Z,101418.66
2022-11-20T03:35:41.830Z,101404.81
2022-11-20T03:38:08.563Z,101388.34
2022-11-20T03:40:36.124Z,101379.66
2022-11-20T03:43:02.869Z,101384.00
2022-11-20T03:45:29.619Z,101382.25
2022-11-20T03:47:56.356Z,101372.72
2022-11-20T03:50:24.642Z,101376.13
2022-11-20T03:52:51.328Z,101371.81
2022-11-20T03:55:18.420Z,101371.81
2022-11-20T03:57:45.239Z,101374.34
2022-11-20T04:00:13.412Z,101369.97
2022-11-20T04:02:40.166Z,101361.25
2022-11-20T04:05:07.593Z,101360.41
2022-11-20T04:07:36.542Z,101357.00
2022-11-20T04:10:03.888Z,101363.06
2022-11-20T04:12:33.298Z,101357.06
2022-11-20T04:15:00.146Z,101361.38
2022-11-20T04:17:27.263Z,101355.22
2022-11-20T04:19:54.008Z,101354.31
2022-11-20T04:22:20.735Z,101358.66
2022-11-20T04:24:48.932Z,101351.81
2022-11-20T04:27:15.725Z,101343.22
2022-11-20T04:29:42.486Z,101350.97
2022-11-20T04:32:09.567Z,101345.84
2022-11-20T04:34:36.516Z,101334.56
2022-11-20T04:37:03.199Z,101338.91
2022-11-20T04:39:29.860Z,101351.84
2022-11-20T04:42:16.313Z,101347.53
2022-11-20T04:44:43.110Z,101347.56
2022-11-20T04:47:09.812Z,101344.13
2022-11-20T04:49:36.622Z,101347.69
2022-11-20T04:52:03.618Z,101343.44
2022-11-20T04:54:30.399Z,101351.25
2022-11-20T04:56:58.671Z,101349.56
2022-11-20T04:59:25.452Z,101350.38
2022-11-20T05:01:52.443Z,101358.19
2022-11-20T05:04:19.309Z,101366.81
2022-11-20T05:06:46.675Z,101366.88
2022-11-20T05:09:13.986Z,101357.31
2022-11-20T05:11:40.749Z,101353.00
2022-11-20T05:14:08.961Z,101342.50
2022-11-20T05:16:37.108Z,101330.38
2022-11-20T05:19:03.943Z,101328.66
2022-11-20T05:21:31.538Z,101329.56
2022-11-20T05:23:58.374Z,101319.16
2022-11-20T05:26:25.127Z,101312.25
2022-11-20T05:28:52.890Z,101311.41
2022-11-20T05:31:27.290Z,101310.44
2022-11-20T05:33:55.587Z,101311.28
2022-11-20T05:36:22.374Z,101305.19
2022-11-20T05:38:51.241Z,101313.84
2022-11-20T05:41:20.170Z,101314.72
2022-11-20T05:43:49.074Z,101313.03
2022-11-20T05:46:17.826Z,101312.16
2022-11-20T05:48:47.207Z,101303.47
2022-11-20T05:51:17.194Z,101310.34
2022-11-20T05:53:48.080Z,101312.09
2022-11-20T05:56:17.658Z,101326.81
2022-11-20T05:58:45.030Z,101321.59
2022-11-20T06:01:14.488Z,101314.66
2022-11-20T06:03:43.405Z,101306.88
2022-11-20T06:06:11.486Z,101312.06
2022-11-20T06:08:38.264Z,101322.44
2022-11-20T06:11:06.316Z,101321.59
2022-11-20T06:13:34.031Z,101318.94
2022-11-20T06:16:02.481Z,101318.06
2022-11-20T06:18:31.710Z,101316.31
2022-11-20T06:21:03.797Z,101313.72
2022-11-20T06:23:33.431Z,101307.66
2022-11-20T06:26:03.619Z,101297.25
2022-11-20T06:28:30.908Z,101307.56
2022-11-20T06:30:57.866Z,101311.00
2022-11-20T06:33:25.035Z,101299.69
2022-11-20T06:35:55.575Z,101300.50
2022-11-20T06:38:26.557Z,101303.91
2022-11-20T06:40:54.877Z,101297.00
2022-11-20T06:43:21.964Z,101300.47
2022-11-20T06:45:53.258Z,101297.00
2022-11-20T06:48:20.054Z,101300.50
2022-11-20T06:50:46.785Z,101295.31
2022-11-20T06:53:13.627Z,101296.06
2022-11-20T06:55:43.431Z,101290.81
2022-11-20T06:58:11.669Z,101285.53
2022-11-20T07:00:39.028Z,101287.19
2022-11-20T07:03:06.550Z,101281.84
2022-11-20T07:05:33.804Z,101276.53
2022-11-20T07:08:00.719Z,101273.84
2022-11-20T07:10:27.762Z,101278.13
2022-11-20T07:12:55.047Z,101277.28
2022-11-20T07:15:25.524Z,101278.16
2022-11-20T07:17:53.273Z,101294.66
2022-11-20T07:20:20.082Z,101285.97
2022-11-20T07:22:47.024Z,101275.41
2022-11-20T07:25:13.957Z,101271.84
2022-11-20T07:27:40.847Z,101265.66
2022-11-20T07:30:08.384Z,101261.22
2022-11-20T07:32:37.797Z,101267.28
2022-11-20T07:35:05.314Z,101254.22
2022-11-20T07:37:35.292Z,101252.50
2022-11-20T07:40:02.364Z,101257.97
2022-11-20T07:42:29.449Z,101254.66
2022-11-20T07:44:56.849Z,101256.38
2022-11-20T07:47:23.810Z,101265.03
2022-11-20T07:49:52.622Z,101257.13
2022-11-20T07:52:19.505Z,101257.88
2022-11-20T07:54:46.354Z,101249.91
2022-11-20T07:57:13.200Z,101254.13
2022-11-20T07:59:40.299Z,101252.25
2022-11-20T08:02:07.314Z,101252.97
2022-11-20T08:04:34.292Z,101237.16
2022-11-20T08:07:02.675Z,101220.56
2022-11-20T08:09:30.082Z,101242.84
2022-11-20T08:12:15.351Z,101244.34
2022-11-20T08:14:42.163Z,101245.97
2022-11-20T08:17:09.018Z,101241.50
2022-11-20T08:19:35.880Z,101244.03
2022-11-20T08:22:04.165Z,101244.78
2022-11-20T08:24:31.199Z,101236.13
2022-11-20T08:26:58.695Z,101248.19
2022-11-20T08:29:25.666Z,101247.03
2022-11-20T08:31:52.509Z,101245.28
2022-11-20T08:34:19.829Z,101245.16
2022-11-20T08:36:46.807Z,101235.56
2022-11-20T08:39:15.637Z,101227.66
2022-11-20T08:41:42.532Z,101218.97
2022-11-20T08:44:09.887Z,101234.50
2022-11-20T08:46:38.442Z,101234.31
2022-11-20T08:49:05.892Z,101233.31
2022-11-20T08:51:33.544Z,101216.66
2022-11-20T08:54:00.472Z,101237.34
2022-11-20T08:56:28.950Z,101225.97
2022-11-20T08:59:18.285Z,101226.81
2022-11-20T09:01:42.527Z,101219.69
2022-11-20T09:04:09.467Z,101213.56
2022-11-20T09:06:36.297Z,101216.19
2022-11-20T09:09:06.607Z,101210.03
2022-11-20T09:11:36.112Z,101208.19
2022-11-20T09:14:03.894Z,101203.94
2022-11-20T09:16:30.776Z,101211.19
2022-11-20T09:19:28.122Z,101210.31
2022-11-20T09:21:44.412Z,101199.78
2022-11-20T09:24:11.490Z,101193.47
2022-11-20T09:26:39.729Z,101189.97
2022-11-20T09:29:06.952Z,101184.69
2022-11-20T09:34:17.988Z,101182.69
2022-11-20T09:36:45.046Z,101185.16
2022-11-20T09:39:11.987Z,101190.94
2022-11-20T09:42:10.698Z,101178.69
2022-11-20T09:44:50.961Z,101183.47
2022-11-20T09:47:28.383Z,101180.56
2022-11-20T09:50:08.165Z,101186.28
2022-11-20T09:52:47.116Z,101166.81
2022-11-20T09:55:15.943Z,101158.84
2022-11-20T09:57:48.222Z,101159.63
2022-11-20T10:00:16.583Z,101156.69
2022-11-20T10:02:49.410Z,101152.75
2022-11-20T10:05:19.913Z,101139.72
2022-11-20T10:07:56.360Z,101145.47
2022-11-20T10:10:38.582Z,101130.06
2022-11-20T10:13:26.299Z,101125.09
2022-11-20T10:16:03.747Z,101128.88
2022-11-20T10:18:43.949Z,101124.47
2022-11-20T10:21:20.327Z,101126.97
2022-11-20T10:24:00.904Z,101121.63
2022-11-20T10:26:35.118Z,101135.34
2022-11-20T10:29:11.754Z,101131.97
2022-11-20T10:31:41.250Z,101129.63
2022-11-20T10:34:22.617Z,101114.22
2022-11-20T10:36:56.325Z,101113.81
2022-11-20T10:39:32.757Z,101107.00
2022-11-20T10:42:01.792Z,101098.69
2022-11-20T10:44:55.162Z,101086.63
2022-11-20T10:47:23.599Z,101079.19
2022-11-20T10:49:54.477Z,101085.91
2022-11-20T10:52:29.927Z,101068.25
2022-11-20T10:55:05.241Z,101063.41
2022-11-20T10:57:47.982Z,101070.13
2022-11-20T11:00:18.264Z,101065.28
2022-11-20T11:02:48.664Z,101065.88
2022-11-20T11:05:36.263Z,101064.44
2022-11-20T11:08:05.815Z,101055.91
2022-11-20T11:10:42.363Z,101048.13
2022-11-20T11:13:22.982Z,101043.19
2022-11-20T11:15:54.912Z,101055.38
2022-11-20T11:18:27.328Z,101055.28
2022-11-20T11:20:55.251Z,101047.56
2022-11-20T11:23:33.373Z,101048.28
2022-11-20T11:26:06.311Z,101047.41
2022-11-20T11:28:36.563Z,101043.38
2022-11-20T11:31:09.639Z,101039.75
2022-11-20T11:33:37.008Z,101043.28
2022-11-20T11:36:17.786Z,101029.34
2022-11-20T11:38:45.303Z,101017.09
2022-11-20T11:41:17.710Z,101015.41
2022-11-20T11:44:12.144Z,101005.66
2022-11-20T11:46:45.277Z,100993.50
2022-11-20T11:49:18.768Z,100994.22
2022-11-20T11:52:01.358Z,100991.63
2022-11-20T11:54:33.584Z,100990.84
2022-11-20T11:57:02.984Z,100989.34
2022-11-20T11:59:40.180Z,100983.06
2022-11-20T12:05:21.476Z,100983.09
2022-11-20T12:07:50.736Z,100975.41
2022-11-20T12:10:23.204Z,100971.00
2022-11-20T12:13:32.281Z,100969.44
2022-11-20T12:16:00.129Z,100970.19
2022-11-20T12:18:29.610Z,100963.00
2022-11-20T12:21:07.088Z,100948.00
2022-11-20T12:23:46.836Z,100946.84
2022-11-20T12:26:36.460Z,100950.91
2022-11-20T12:29:12.115Z,100933.03
2022-11-20T12:31:48.510Z,100936.78
2022-11-20T12:34:32.566Z,100937.25
2022-11-20T12:37:13.058Z,100923.06
2022-11-20T12:39:42.764Z,100919.53
2022-11-20T12:42:45.709Z,100916.25
2022-11-20T12:45:35.457Z,100909.00
2022-11-20T12:48:16.856Z,100897.59
2022-11-20T12:51:14.721Z,100893.03
2022-11-20T12:53:52.386Z,100892.25
2022-11-20T12:56:30.731Z,100897.66
2022-11-20T12:59:10.356Z,100893.16
2022-11-20T13:01:45.672Z,100904.13
2022-11-20T13:04:25.843Z,100892.38
2022-11-20T13:06:56.157Z,100889.13
2022-11-20T13:09:24.837Z,100883.00
2022-11-20T13:12:09.904Z,100877.25
2022-11-20T13:14:41.254Z,100873.75
2022-11-20T13:17:14.103Z,100861.22
2022-11-20T13:19:41.270Z,100860.50
2022-11-20T13:22:10.664Z,100860.50
2022-11-20T13:24:37.518Z,100857.22
2022-11-20T13:27:20.479Z,100852.75
2022-11-20T13:30:01.465Z,100843.22
2022-11-20T13:32:33.056Z,100843.97
2022-11-20T13:35:01.840Z,100842.13
2022-11-20T13:37:33.015Z,100829.19
2022-11-20T13:40:23.246Z,100820.47
2022-11-20T13:42:58.325Z,100816.00
2022-11-20T13:45:27.980Z,100820.28
2022-11-20T13:47:55.695Z,100813.38
2022-11-20T13:50:39.815Z,100816.81
2022-11-20T13:53:22.871Z,100808.13
2022-11-20T13:55:55.803Z,100812.41
2022-11-20T13:58:33.583Z,100803.91
2022-11-20T14:01:10.223Z,100796.72
2022-11-20T14:04:04.681Z,100781.88
2022-11-20T14:06:28.530Z,100769.47
2022-11-20T14:08:57.711Z,100771.06
2022-11-20T14:11:26.504Z,100764.84
2022-11-20T14:13:56.211Z,100753.44
2022-11-20T14:16:23.069Z,100750.81
2022-11-20T14:18:50.332Z,100747.41
2022-11-20T14:21:24.317Z,100743.78
2022-11-20T14:23:54.170Z,100746.53
2022-11-20T14:26:25.369Z,100734.28
2022-11-20T14:28:53.019Z,100739.53
2022-11-20T14:31:25.159Z,100748.22
2022-11-20T14:33:54.294Z,100756.19
2022-11-20T15:55:09.403Z,100687.53
2022-11-20T16:23:47.284Z,100648.47
2022-11-20T16:26:17.981Z,100639.88
2022-11-20T16:28:49.537Z,100634.66
2022-11-20T16:31:23.330Z,100627.00
2022-11-20T16:33:52.381Z,100625.22
2022-11-20T16:36:20.664Z,100616.50
2022-11-20T16:41:33.028Z,100610.28
2022-11-20T16:44:01.490Z,100589.34
2022-11-20T16:46:32.378Z,100589.34
2022-11-20T16:52:03.854Z,100584.94
2022-11-20T17:22:19.004Z,100604.91
2022-11-20T17:50:32.194Z,100581.84
2022-11-20T17:52:59.127Z,100570.44
2022-11-20T17:55:26.063Z,100573.81
2022-11-20T17:57:52.903Z,100575.41
2022-11-20T18:00:20.247Z,100584.97
2022-11-20T18:02:47.466Z,100576.97
2022-11-20T18:05:15.776Z,100570.69
2022-11-20T18:07:44.365Z,100568.75
2022-11-20T18:10:11.431Z,100556.66
2022-11-20T18:12:38.406Z,100562.53
2022-11-20T18:15:05.856Z,100561.50
2022-11-20T18:17:32.674Z,100557.97
2022-11-20T18:20:28.291Z,100556.25
2022-11-20T18:22:47.701Z,100558.84
2022-11-20T18:25:14.613Z,100559.59
2022-11-20T18:27:41.632Z,100559.69
2022-11-20T18:30:11.139Z,100559.00
2022-11-20T18:32:38.350Z,100559.09
2022-11-20T18:35:06.174Z,100568.00
2022-11-20T18:37:32.929Z,100561.00
2022-11-20T18:40:01.187Z,100567.28
2022-11-20T18:42:46.300Z,100569.34
2022-11-20T18:45:13.152Z,100555.09
2022-11-20T18:47:40.405Z,100575.06
2022-11-20T18:50:08.846Z,100576.03
2022-11-20T18:52:39.907Z,100589.28
2022-11-20T18:55:09.000Z,100592.88
2022-11-20T18:57:36.493Z,100600.03
2022-11-20T19:00:09.339Z,100562.69
2022-11-20T19:02:41.606Z,100601.31
2022-11-20T19:05:16.177Z,100599.66
2022-11-20T19:07:43.350Z,100610.09
2022-11-20T19:10:12.456Z,100609.41
2022-11-20T19:12:40.115Z,100602.69
2022-11-20T19:15:07.712Z,100608.31
2022-11-20T19:17:34.824Z,100608.66
2022-11-20T19:20:01.655Z,100611.22
2022-11-20T19:22:28.468Z,100607.69
2022-11-20T19:24:55.399Z,100605.25
2022-11-20T19:27:23.843Z,100609.75
2022-11-20T19:29:50.576Z,100615.03
2022-11-20T19:32:17.498Z,100609.25
2022-11-20T19:34:44.302Z,100605.03
2022-11-20T19:37:11.177Z,100607.78
2022-11-20T19:39:38.018Z,100606.16
2022-11-20T19:42:05.906Z,100608.91
2022-11-20T19:44:34.267Z,100601.94
2022-11-20T19:47:03.232Z,100584.72
2022-11-20T19:49:30.132Z,100597.53
2022-11-20T19:51:57.124Z,100595.69
2022-11-20T19:54:24.134Z,100599.91
2022-11-20T19:56:51.000Z,100587.59
2022-11-20T19:59:17.870Z,100592.66
2022-11-20T20:01:46.288Z,100593.53
2022-11-20T20:04:14.138Z,100596.06
2022-11-20T20:06:41.823Z,100585.78
2022-11-20T20:09:18.589Z,100598.78
2022-11-20T20:14:29.641Z,100599.78
2022-11-20T20:16:58.127Z,100598.88
2022-11-20T20:19:25.560Z,100593.69
2022-11-20T20:21:52.734Z,100600.69
2022-11-20T20:24:20.041Z,100607.56
2022-11-20T20:26:46.945Z,100609.28
2022-11-20T20:29:13.907Z,100613.63
2022-11-20T20:31:40.915Z,100607.66
2022-11-20T20:34:09.118Z,100613.56
2022-11-20T20:36:35.989Z,100619.75
2022-11-20T20:39:03.092Z,100617.13
2022-11-20T20:41:30.295Z,100621.38
2022-11-20T20:44:15.922Z,100612.66
2022-11-20T20:46:43.934Z,100621.06
2022-11-20T20:49:12.330Z,100635.78
2022-11-20T20:51:39.257Z,100635.00
2022-11-20T20:54:06.268Z,100646.03
2022-11-20T20:56:33.122Z,100648.63
2022-11-20T20:58:59.913Z,100653.75
2022-11-20T21:01:28.880Z,100652.78
2022-11-20T21:03:56.548Z,100659.75
2022-11-20T21:06:25.010Z,100664.88
2022-11-20T21:08:51.806Z,100663.97
2022-11-20T21:11:20.377Z,100672.66
2022-11-20T21:13:48.335Z,100659.63
2022-11-20T21:16:16.803Z,100660.28
2022-11-20T21:18:44.316Z,100656.88
2022-11-20T21:21:33.172Z,100660.41
2022-11-20T21:24:02.705Z,100665.59
2022-11-20T21:29:11.707Z,100662.91
2022-11-20T22:02:39.269Z,100685.97
2022-11-20T22:05:09.066Z,100687.59
2022-11-20T22:10:25.115Z,100697.88
